createdAt,value
2022-08-03T00:00:16.944Z,1.00
2022-08-03T00:03:05.917Z,1.00
2022-08-03T00:06:04.833Z,1.00
2022-08-03T00:08:56.193Z,1.00
2022-08-03T00:11:45.000Z,1.00
2022-08-03T00:14:51.836Z,1.00
2022-08-03T00:17:51.997Z,1.00
2022-08-03T00:20:56.492Z,1.00
2022-08-03T00:23:52.551Z,1.00
2022-08-03T00:27:02.570Z,1.00
2022-08-03T00:29:59.409Z,1.00
2022-08-03T00:33:01.034Z,1.00
2022-08-03T00:35:51.117Z,1.00
2022-08-03T00:38:55.243Z,1.00
2022-08-03T00:45:05.852Z,1.00
2022-08-03T00:48:19.798Z,1.00
2022-08-03T00:51:37.666Z,1.00
2022-08-03T00:57:37.817Z,1.00
2022-08-03T01:00:32.187Z,1.00
2022-08-03T01:03:36.569Z,1.00
2022-08-03T01:10:26.122Z,1.00
2022-08-03T01:14:00.947Z,1.00
2022-08-03T01:17:01.172Z,1.00
2022-08-03T01:20:15.559Z,1.00
2022-08-03T01:23:46.375Z,1.00
2022-08-03T01:27:04.642Z,1.00
2022-08-03T01:30:18.791Z,1.00
2022-08-03T01:33:37.505Z,1.00
2022-08-03T01:39:52.269Z,1.00
2022-08-03T01:43:03.512Z,1.00
2022-08-03T01:49:01.369Z,1.00
2022-08-03T01:52:18.360Z,1.00
2022-08-03T01:55:08.901Z,1.00
2022-08-03T02:02:28.416Z,1.00
2022-08-03T02:05:01.673Z,1.00
2022-08-03T02:07:53.400Z,1.00
2022-08-03T02:10:59.777Z,1.00
2022-08-03T02:14:19.977Z,1.00
2022-08-03T02:17:11.821Z,1.00
2022-08-03T02:22:59.870Z,1.00
2022-08-03T02:29:40.940Z,1.00
2022-08-03T02:33:02.108Z,1.00
2022-08-03T02:35:52.404Z,1.00
2022-08-03T02:38:44.032Z,1.00
2022-08-03T02:41:36.922Z,1.00
2022-08-03T02:44:27.797Z,1.00
2022-08-03T02:47:21.450Z,1.00
2022-08-03T02:50:14.683Z,1.00
2022-08-03T02:53:04.474Z,1.00
2022-08-03T02:55:54.904Z,1.00
2022-08-03T02:58:46.351Z,1.00
2022-08-03T03:01:35.259Z,1.00
2022-08-03T03:04:27.563Z,1.00
2022-08-03T03:07:23.630Z,1.00
2022-08-03T03:10:13.372Z,1.00
2022-08-03T03:13:03.828Z,1.00
2022-08-03T03:15:54.948Z,1.00
2022-08-03T03:18:46.076Z,1.00
2022-08-03T03:21:37.500Z,1.00
2022-08-03T03:24:28.948Z,1.00
2022-08-03T03:27:17.960Z,1.00
2022-08-03T03:30:07.764Z,1.00
2022-08-03T03:32:59.245Z,1.00
2022-08-03T03:35:48.644Z,1.00
2022-08-03T03:38:37.912Z,1.00
2022-08-03T03:41:28.285Z,1.00
2022-08-03T03:44:22.712Z,1.00
2022-08-03T03:47:11.511Z,1.00
2022-08-03T03:50:02.905Z,1.00
2022-08-03T03:52:51.607Z,1.00
2022-08-03T03:56:01.644Z,1.00
2022-08-03T03:58:52.029Z,1.00
2022-08-03T04:01:41.041Z,1.00
2022-08-03T04:04:46.980Z,1.00
2022-08-03T04:08:01.175Z,1.00
2022-08-03T04:11:03.917Z,1.00
2022-08-03T04:14:01.772Z,1.00
2022-08-03T04:16:53.420Z,1.00
2022-08-03T04:19:47.505Z,1.00
2022-08-03T04:22:37.065Z,1.00
2022-08-03T04:25:29.345Z,1.00
2022-08-03T04:28:30.741Z,1.10
2022-08-03T04:31:24.629Z,1.30
2022-08-03T04:34:13.553Z,2.10
2022-08-03T04:37:07.253Z,2.30
2022-08-03T04:40:00.472Z,2.50
2022-08-03T04:42:51.460Z,2.40
2022-08-03T04:45:40.809Z,2.50
2022-08-03T04:48:31.229Z,3.80
2022-08-03T04:51:20.491Z,5.50
2022-08-03T04:54:13.877Z,6.40
2022-08-03T04:57:02.618Z,6.20
2022-08-03T05:00:01.345Z,6.20
2022-08-03T05:02:51.924Z,6.00
2022-08-03T05:05:49.965Z,6.10
2022-08-03T05:08:46.137Z,6.30
2022-08-03T05:11:35.930Z,6.50
2022-08-03T05:14:27.960Z,6.80
2022-08-03T05:17:17.151Z,7.50
2022-08-03T05:20:06.987Z,7.80
2022-08-03T05:22:57.184Z,9.30
2022-08-03T05:25:49.707Z,11.90
2022-08-03T05:28:39.247Z,10.40
2022-08-03T05:31:36.873Z,9.20
2022-08-03T05:34:25.605Z,8.30
2022-08-03T05:37:14.359Z,6.80
2022-08-03T05:40:05.089Z,7.40
2022-08-03T05:42:53.824Z,6.00
2022-08-03T05:45:42.708Z,7.20
2022-08-03T05:48:31.398Z,7.60
2022-08-03T05:51:20.234Z,8.60
2022-08-03T05:54:08.948Z,8.00
2022-08-03T05:56:59.075Z,7.10
2022-08-03T05:59:53.857Z,6.90
2022-08-03T06:02:44.436Z,5.80
2022-08-03T06:05:36.599Z,3.10
2022-08-03T06:08:32.134Z,1.00
2022-08-03T06:11:20.809Z,1.00
2022-08-03T06:14:10.955Z,1.00
2022-08-03T06:16:59.670Z,1.00
2022-08-03T06:19:48.384Z,1.00
2022-08-03T06:22:37.151Z,1.00
2022-08-03T06:25:39.311Z,1.00
2022-08-03T06:28:53.054Z,1.00
2022-08-03T06:31:38.204Z,1.00
2022-08-03T06:34:33.480Z,1.00
2022-08-03T06:37:24.701Z,1.00
2022-08-03T06:40:15.094Z,1.00
2022-08-03T06:43:12.430Z,1.00
2022-08-03T06:46:01.594Z,1.00
2022-08-03T06:48:51.959Z,1.00
2022-08-03T06:52:03.687Z,1.00
2022-08-03T06:54:49.674Z,1.00
2022-08-03T06:57:38.351Z,1.00
2022-08-03T07:00:28.152Z,1.00
2022-08-03T07:03:16.958Z,1.00
2022-08-03T07:06:07.612Z,1.00
2022-08-03T07:08:59.585Z,1.00
2022-08-03T07:11:48.430Z,1.00
2022-08-03T07:14:37.129Z,1.00
2022-08-03T07:17:25.847Z,1.00
2022-08-03T07:20:15.417Z,1.00
2022-08-03T07:23:05.509Z,1.00
2022-08-03T07:25:54.338Z,1.00
2022-08-03T07:28:43.142Z,1.00
2022-08-03T07:31:34.180Z,1.00
2022-08-03T07:34:23.305Z,1.00
2022-08-03T07:37:12.082Z,1.00
2022-08-03T07:40:03.114Z,1.00
2022-08-03T07:42:53.212Z,1.00
2022-08-03T07:45:42.302Z,1.00
2022-08-03T07:48:31.008Z,1.00
2022-08-03T07:51:19.743Z,1.00
2022-08-03T07:54:10.303Z,1.00
2022-08-03T07:57:00.480Z,1.00
2022-08-03T08:00:01.380Z,1.00
2022-08-03T08:02:51.196Z,1.00
2022-08-03T08:05:39.959Z,1.00
2022-08-03T08:08:28.647Z,1.00
2022-08-03T08:11:17.581Z,1.00
2022-08-03T08:14:08.185Z,1.00
2022-08-03T08:16:56.903Z,1.00
2022-08-03T08:19:51.346Z,1.00
2022-08-03T08:22:40.856Z,1.00
2022-08-03T08:25:31.645Z,1.00
2022-08-03T08:28:29.926Z,1.00
2022-08-03T08:31:23.386Z,1.00
2022-08-03T08:34:12.228Z,1.00
2022-08-03T08:37:01.008Z,1.00
2022-08-03T08:39:49.816Z,1.00
2022-08-03T08:42:44.600Z,1.00
2022-08-03T08:45:46.294Z,1.00
2022-08-03T08:48:41.533Z,1.00
2022-08-03T08:51:54.601Z,1.00
2022-08-03T08:54:46.454Z,1.00
2022-08-03T08:57:43.134Z,1.00
2022-08-03T09:00:32.458Z,1.00
2022-08-03T09:03:22.671Z,1.00
2022-08-03T09:06:20.027Z,1.00
2022-08-03T09:09:09.394Z,1.00
2022-08-03T09:12:40.615Z,1.00
2022-08-03T09:15:29.566Z,1.00
2022-08-03T09:18:32.704Z,1.00
2022-08-03T09:21:34.221Z,1.00
2022-08-03T09:24:40.633Z,1.00
2022-08-03T09:27:30.536Z,1.00
2022-08-03T09:30:34.611Z,1.00
2022-08-03T09:33:24.595Z,1.00
2022-08-03T09:36:41.101Z,1.00
2022-08-03T09:39:41.067Z,1.00
2022-08-03T09:42:31.124Z,1.00
2022-08-03T09:45:27.767Z,1.00
2022-08-03T09:48:24.751Z,1.00
2022-08-03T09:52:02.605Z,1.00
2022-08-03T09:54:32.698Z,1.00
2022-08-03T09:57:25.849Z,1.00
2022-08-03T10:00:17.507Z,1.00
2022-08-03T10:03:06.752Z,1.00
2022-08-03T10:05:59.526Z,1.00
2022-08-03T10:08:49.003Z,1.00
2022-08-03T10:11:42.088Z,1.00
2022-08-03T10:14:32.657Z,1.00
2022-08-03T10:17:21.702Z,1.00
2022-08-03T10:20:11.602Z,1.00
2022-08-03T10:23:01.450Z,1.00
2022-08-03T10:25:56.447Z,1.00
2022-08-03T10:28:51.626Z,1.00
2022-08-03T10:31:57.526Z,1.00
2022-08-03T10:34:51.819Z,1.00
2022-08-03T10:37:57.132Z,1.00
2022-08-03T10:40:49.938Z,1.00
2022-08-03T10:43:49.058Z,1.00
2022-08-03T10:46:44.711Z,1.00
2022-08-03T10:49:35.748Z,1.00
2022-08-03T10:52:33.710Z,1.00
2022-08-03T10:55:49.349Z,1.00
2022-08-03T10:58:57.443Z,1.00
2022-08-03T11:02:00.448Z,1.00
2022-08-03T11:05:24.425Z,1.00
2022-08-03T11:08:21.039Z,1.00
2022-08-03T11:11:28.747Z,1.00
2022-08-03T11:14:20.073Z,1.00
2022-08-03T11:17:14.581Z,1.00
2022-08-03T11:20:05.562Z,1.00
2022-08-03T11:22:57.146Z,1.00
2022-08-03T11:26:17.456Z,1.00
2022-08-03T11:29:31.179Z,1.00
2022-08-03T11:32:54.627Z,1.00
2022-08-03T11:36:00.374Z,1.00
2022-08-03T11:39:16.597Z,1.00
2022-08-03T11:42:39.322Z,1.00
2022-08-03T11:45:28.223Z,1.00
2022-08-03T11:48:18.700Z,1.00
2022-08-03T11:51:09.594Z,1.00
2022-08-03T11:53:59.929Z,1.00
2022-08-03T11:56:50.200Z,1.00
2022-08-03T11:59:39.560Z,1.00
2022-08-03T12:02:28.413Z,1.00
2022-08-03T12:05:19.104Z,1.00
2022-08-03T12:08:09.151Z,1.00
2022-08-03T12:11:00.149Z,1.00
2022-08-03T12:14:45.692Z,1.00
2022-08-03T12:17:00.654Z,1.00
2022-08-03T12:19:49.394Z,1.00
2022-08-03T12:22:41.303Z,1.00
2022-08-03T12:25:39.657Z,1.00
2022-08-03T12:28:36.913Z,1.00
2022-08-03T12:31:27.008Z,1.00
2022-08-03T12:34:16.880Z,1.00
2022-08-03T12:37:21.762Z,1.00
2022-08-03T12:40:20.549Z,1.00
2022-08-03T12:43:14.653Z,1.00
2022-08-03T12:46:11.846Z,1.00
2022-08-03T12:49:02.309Z,1.00
2022-08-03T12:52:06.900Z,1.00
2022-08-03T12:54:57.467Z,1.00
2022-08-03T12:57:47.618Z,1.00
2022-08-03T13:00:36.331Z,1.00
2022-08-03T13:03:39.747Z,1.00
2022-08-03T13:06:31.629Z,1.00
2022-08-03T13:09:20.517Z,1.00
2022-08-03T13:12:11.955Z,1.00
2022-08-03T13:15:02.326Z,1.00
2022-08-03T13:17:51.039Z,1.00
2022-08-03T13:20:39.754Z,1.00
2022-08-03T13:23:28.472Z,1.00
2022-08-03T13:26:17.373Z,1.00
2022-08-03T13:29:06.399Z,1.00
2022-08-03T13:31:56.534Z,1.00
2022-08-03T13:34:45.281Z,1.00
2022-08-03T13:37:34.429Z,1.00
2022-08-03T13:40:23.679Z,1.00
2022-08-03T13:43:18.990Z,1.00
2022-08-03T13:46:07.657Z,1.00
2022-08-03T13:48:57.759Z,1.00
2022-08-03T13:51:46.593Z,1.00
2022-08-03T13:54:35.401Z,1.00
2022-08-03T13:58:03.131Z,1.00
2022-08-03T14:00:33.082Z,1.00
2022-08-03T14:03:21.898Z,1.00
2022-08-03T14:06:11.949Z,1.00
2022-08-03T14:09:00.819Z,1.00
2022-08-03T14:12:04.132Z,1.00
2022-08-03T14:14:59.602Z,1.00
2022-08-03T14:17:50.521Z,1.00
2022-08-03T14:20:50.330Z,1.00
2022-08-03T14:23:44.463Z,1.00
2022-08-03T14:26:33.480Z,1.00
2022-08-03T14:29:22.289Z,1.00
2022-08-03T14:32:13.401Z,1.00
2022-08-03T14:35:02.477Z,1.00
2022-08-03T14:37:51.939Z,1.00
2022-08-03T14:40:42.077Z,1.00
2022-08-03T14:43:33.849Z,1.00
2022-08-03T14:46:22.934Z,1.00
2022-08-03T14:50:36.510Z,1.00
2022-08-03T14:52:20.387Z,1.00
2022-08-03T14:55:09.713Z,1.00
2022-08-03T14:58:02.686Z,1.00
2022-08-03T15:00:52.382Z,1.00
2022-08-03T15:03:41.288Z,1.00
2022-08-03T15:06:30.083Z,1.00
2022-08-03T15:09:23.904Z,1.00
2022-08-03T15:12:12.817Z,1.00
2022-08-03T15:15:02.997Z,1.00
2022-08-03T15:18:00.477Z,1.00
2022-08-03T15:20:50.970Z,1.00
2022-08-03T15:23:39.792Z,1.00
2022-08-03T15:26:35.369Z,1.00
2022-08-03T15:30:05.602Z,1.00
2022-08-03T15:32:38.129Z,1.00
2022-08-03T15:35:28.962Z,1.00
2022-08-03T15:38:17.730Z,1.00
2022-08-03T15:41:06.487Z,1.00
2022-08-03T15:44:07.458Z,1.00
2022-08-03T15:46:57.972Z,1.00
2022-08-03T15:49:48.098Z,1.00
2022-08-03T15:52:36.766Z,1.00
2022-08-03T15:55:25.957Z,1.00
2022-08-03T15:59:04.118Z,1.00
2022-08-03T16:01:23.606Z,1.00
2022-08-03T16:04:12.362Z,1.00
2022-08-03T16:07:02.501Z,1.00
2022-08-03T16:09:51.414Z,1.00
2022-08-03T16:12:40.430Z,1.00
2022-08-03T16:15:29.192Z,1.00
2022-08-03T16:18:18.141Z,1.00
2022-08-03T16:21:06.864Z,1.00
2022-08-03T16:24:02.011Z,1.00
2022-08-03T16:26:54.378Z,1.00
2022-08-03T16:29:44.594Z,1.00
2022-08-03T16:32:34.784Z,1.00
2022-08-03T16:35:24.406Z,1.00
2022-08-03T16:38:18.586Z,1.00
2022-08-03T16:41:09.094Z,1.00
2022-08-03T16:43:57.814Z,1.00
2022-08-03T16:46:46.947Z,1.00
2022-08-03T16:49:54.994Z,1.00
2022-08-03T16:52:47.344Z,1.00
2022-08-03T16:55:48.728Z,1.00
2022-08-03T16:58:44.389Z,1.00
2022-08-03T17:01:39.223Z,1.00
2022-08-03T17:04:28.657Z,1.00
2022-08-03T17:07:18.350Z,1.00
2022-08-03T17:10:09.964Z,1.00
2022-08-03T17:12:59.091Z,1.00
2022-08-03T17:16:00.766Z,1.00
2022-08-03T17:18:53.848Z,1.00
2022-08-03T17:21:50.839Z,1.00
2022-08-03T17:24:42.349Z,1.00
2022-08-03T17:28:41.672Z,1.00
2022-08-03T17:30:57.892Z,1.00
2022-08-03T17:33:54.772Z,1.00
2022-08-03T17:39:59.191Z,1.00
2022-08-03T17:42:50.567Z,1.00
2022-08-03T17:45:42.277Z,1.00
2022-08-03T17:48:42.217Z,1.00
2022-08-03T17:51:37.037Z,1.00
2022-08-03T17:55:55.893Z,1.00
2022-08-03T17:58:02.114Z,1.00
2022-08-03T18:01:59.613Z,1.00
2022-08-03T18:04:30.293Z,1.00
2022-08-03T18:07:23.507Z,1.00
2022-08-03T18:10:49.805Z,1.00
2022-08-03T18:13:44.966Z,1.00
2022-08-03T18:16:53.637Z,1.00
2022-08-03T18:20:03.773Z,1.00
2022-08-03T18:22:54.483Z,1.00
2022-08-03T18:25:50.214Z,1.00
2022-08-03T18:28:43.222Z,1.00
2022-08-03T18:32:02.335Z,1.00
2022-08-03T18:34:54.181Z,1.00
2022-08-03T18:37:52.035Z,1.00
2022-08-03T18:40:48.570Z,1.00
2022-08-03T18:43:47.488Z,1.00
2022-08-03T18:46:46.698Z,1.00
2022-08-03T18:49:46.390Z,1.00
2022-08-03T18:52:45.843Z,1.00
2022-08-03T18:55:38.826Z,1.00
2022-08-03T18:59:02.388Z,1.00
2022-08-03T19:02:01.011Z,1.00
2022-08-03T19:04:55.104Z,1.00
2022-08-03T19:07:59.719Z,1.00
2022-08-03T19:10:57.635Z,1.00
2022-08-03T19:13:52.210Z,1.00
2022-08-03T19:16:42.187Z,1.00
2022-08-03T19:19:43.628Z,1.00
2022-08-03T19:22:34.643Z,1.00
2022-08-03T19:25:34.281Z,1.00
2022-08-03T19:28:29.776Z,1.00
2022-08-03T19:31:21.807Z,1.00
2022-08-03T19:34:20.091Z,1.00
2022-08-03T19:37:15.426Z,1.00
2022-08-03T19:40:04.374Z,1.00
2022-08-03T19:43:01.857Z,1.00
2022-08-03T19:49:10.334Z,1.00
2022-08-03T19:52:04.949Z,1.00
2022-08-03T19:54:56.938Z,1.00
2022-08-03T19:57:49.191Z,1.00
2022-08-03T20:00:40.592Z,1.00
2022-08-03T20:03:43.023Z,1.00
2022-08-03T20:06:33.698Z,1.00
2022-08-03T20:09:22.560Z,1.00
2022-08-03T20:12:11.898Z,1.00
2022-08-03T20:15:00.990Z,1.00
2022-08-03T20:17:56.662Z,1.00
2022-08-03T20:20:51.541Z,1.00
2022-08-03T20:24:03.118Z,1.00
2022-08-03T20:26:55.353Z,1.00
2022-08-03T20:30:06.600Z,1.00
2022-08-03T20:32:56.211Z,1.00
2022-08-03T20:35:45.837Z,1.00
2022-08-03T20:38:43.723Z,1.00
2022-08-03T20:41:34.128Z,1.00
2022-08-03T20:44:25.928Z,1.00
2022-08-03T20:47:23.813Z,1.00
2022-08-03T20:50:13.147Z,1.00
2022-08-03T20:53:04.843Z,1.00
2022-08-03T20:56:02.175Z,1.00
2022-08-03T20:58:55.016Z,1.00
2022-08-03T21:01:44.348Z,1.00
2022-08-03T21:04:33.411Z,1.00
2022-08-03T21:07:25.334Z,1.00
2022-08-03T21:10:38.200Z,1.00
2022-08-03T21:13:10.495Z,1.00
2022-08-03T21:13:33.551Z,1.00
2022-08-03T21:16:28.718Z,1.00
2022-08-03T21:19:19.620Z,1.00
2022-08-03T21:22:10.498Z,1.00
2022-08-03T21:25:00.705Z,1.00
2022-08-03T21:27:52.119Z,1.00
2022-08-03T21:30:41.135Z,1.00
2022-08-03T21:33:31.803Z,1.00
2022-08-03T21:36:21.038Z,1.00
2022-08-03T21:39:11.527Z,1.00
2022-08-03T21:42:00.419Z,1.00
2022-08-03T21:44:49.252Z,1.00
2022-08-03T21:47:40.518Z,1.00
2022-08-03T21:50:31.336Z,1.00
2022-08-03T21:53:21.312Z,1.00
2022-08-03T21:56:12.398Z,1.00
2022-08-03T21:59:06.412Z,1.00
2022-08-03T22:01:58.600Z,1.00
2022-08-03T22:04:53.232Z,1.00
2022-08-03T22:07:47.216Z,1.00
2022-08-03T22:10:36.119Z,1.00
2022-08-03T22:13:43.958Z,1.00
2022-08-03T22:16:33.371Z,1.00
2022-08-03T22:19:22.142Z,1.00
2022-08-03T22:22:13.985Z,1.00
2022-08-03T22:25:07.256Z,1.00
2022-08-03T22:28:00.045Z,1.00
2022-08-03T22:30:49.621Z,1.00
2022-08-03T22:33:39.496Z,1.00
2022-08-03T22:36:28.391Z,1.00
2022-08-03T22:39:25.898Z,1.00
2022-08-03T22:42:16.325Z,1.00
2022-08-03T22:45:08.519Z,1.00
2022-08-03T22:47:57.429Z,1.00
2022-08-03T22:50:47.166Z,1.00
2022-08-03T22:53:37.186Z,1.00
2022-08-03T22:56:26.128Z,1.00
2022-08-03T22:59:40.048Z,1.00
2022-08-03T23:02:25.888Z,1.00
2022-08-03T23:06:00.575Z,1.00
2022-08-03T23:08:27.699Z,1.00
2022-08-03T23:11:18.945Z,1.00
2022-08-03T23:14:12.552Z,1.00
2022-08-03T23:17:05.320Z,1.00
2022-08-03T23:19:55.105Z,1.00
2022-08-03T23:22:44.047Z,1.00
2022-08-03T23:25:41.186Z,1.00
2022-08-03T23:28:32.826Z,1.00
2022-08-03T23:31:23.140Z,1.00
2022-08-03T23:34:32.379Z,1.00
2022-08-03T23:37:21.515Z,1.00
2022-08-03T23:40:13.267Z,1.00
2022-08-03T23:43:03.240Z,1.00
2022-08-03T23:45:53.297Z,1.00
2022-08-03T23:48:42.238Z,1.00
2022-08-03T23:51:42.098Z,1.00
2022-08-03T23:54:41.219Z,1.00
2022-08-03T23:57:38.313Z,1.00
